Pagrindinis puslapis
METAR-TAF:

METAR-TAF

Oro uostai :

Naftos platforma

Norne Fpso, Norvegija

platuma: 66-01-48N, ilguma: 008-04-48E, Aukštis: 10 m

Dabartinis oras

Ataskaita buvo paskelbta 26 minutes, ne 08:20 UTC
Vėjas 23 kt iš Rytų
Temperatūra 3°C
Drėgmė 65%
Slėgis 979 hPa
Matomumas 10 km arba daugiau
Mažai debesys ne aukštis 2000 ft
Liūtis kaimynystėje

METAR: ENNE 080820Z 08023KT 9999 VCSH FEW020 03/M03 Q0979 W///S4

Laikas: 09:46 (08:46 UTC)

Prognozė

Ataskaita buvo paskelbta 46 minutes, ne 08:00 UTC
Prognozė galioja nuo 08 metu 09 UTC su 08 metu 18 UTC
Vėjas 25 kt iš Rytų
Matomumas 10 km arba daugiau
Išsisklaidę debesys ne aukštis 2500 ft
lietus
Tapsmas
nuo 08 metu 11 UTC su 08 metu 13 UTC
Vėjas 35 kt iš Rytų/Šiaurės Rytų

TAF: ENNE 080800Z 0809/0818 08025KT 9999 -SHRA SCT025 BECMG 0811/0813 07035KT

Orai ataskaitas ir orų prognozės (METAR, TAF).

turimą stotys yra geltonos ir raudonos taškus žemėlapyje.

Perkelti pele per norėdami pamatyti stoties vardą.

Tada spustelėkite, norėdami matyti oro stebėjimo ir prognozės.

Norėdami pakeisti žemėlapį: spustelėkite ant žalios mygtukų su juodo kryžiaus žemyn,; žalią mygtuką su brūkšneliu, jei norite nutolinti; arba žalių rodyklių gretimoms žemėlapius.


METAR-TAF: